Marthasville, MO

10:07 PM CDT on September 20, 2014 (GMT -0500)
new haven | Change Station
CLOSE
Current Station
Personal Weather Station
Location: New Haven, MO
Elevation: 659 ft
Nearby Weather Stations

Elev 659 ft 38.60 °N, 91.21 °W | Updated 59 seconds ago

Clear
Clear
71.9 °F
Feels Like 71.9 °F
N
3.0
Wind Variable Wind from WSW
Gusts 18.0 mph

Today
High -- | Low -- °F
--% Chance of Precip.
Yesterday
High -- | Low -- °F
Precip. -- in
6:50 AM 7:04 PM
Waning Crescent, 9% visible
Pressure 29.92 in
Visibility 10.0 miles
Clouds Clear
Dew Point 68 °F
Humidity 88%
Rainfall 0.00 in
Snow Depth Not available.
UV 0 out of 12
Pollen 7.40 out of 12
Air Quality Not available.
Flu Activity Not available.
METAR KFYG 210255Z AUTO 00000KT 10SM CLR 21/19 A2992 RMK AO2

More Conditions Fewer Conditions

Pressure 29.92 in
Visibility 10.0 miles
Clouds Clear
Dew Point 68 °F
Humidity 88%
Rainfall 0.00 in
Snow Depth Not available.
UV 0 out of 12
Pollen 7.40 out of 12
Air Quality Not available.
Flu Activity Not available.
METAR KFYG 210255Z AUTO 00000KT 10SM CLR 21/19 A2992 RMK AO2

More Conditions Fewer Conditions

10-Day Weather Forecast

Almanac

Astronomy

Sep. 20, 2014 Rise Set
Actual Time 6:50 AM CDT 7:04 PM CDT
Civil Twilight 6:23 AM CDT 7:31 PM CDT
Nautical Twilight 5:52 AM CDT 8:02 PM CDT
Astronomical Twilight 5:21 AM CDT 8:33 PM CDT
Moon 3:31 AM CDT (9/20) 5:06 PM CDT (9/20)
Length of Visible Light 13h 07m
Length of Day
12h 14m
Tomorrow will be 2m 30s shorter.
Waning Crescent, 9% of the Moon is Illuminated
Today
Waning Crescent
Sep 24
New
Oct 1
First Quarter
Oct 8
Full
Oct 15
Last Quarter

Today's Extremes

State Highs State Lows

Community

WunderPhotos

Upload Photos

1,755,067 photos uploaded!

WunderBlogs® & News

Nearby

Snow Depth

Station Depth Elevation
No new snow has been reported.

Earthquake Activity

City Distance Mag. Time & Date
No recent earthquake activity has been reported nearby.
Minimum magnitude displayed is 2.5.

Coastal Water Temperatures

Place Temperature
No Stations Reporting

Nearby Weather Stations